sensor_id;sensor_type;location;lat;lon;timestamp;P1;durP1;ratioP1;P2;durP2;ratioP2
179;SDS011;78;48.788;9.010;2023-04-24T00:00:37;15.87;;;2.40;;
179;SDS011;78;48.788;9.010;2023-04-24T00:03:05;15.80;;;2.60;;
179;SDS011;78;48.788;9.010;2023-04-24T00:05:32;14.83;;;2.30;;
179;SDS011;78;48.788;9.010;2023-04-24T00:07:58;15.30;;;2.60;;
179;SDS011;78;48.788;9.010;2023-04-24T00:10:25;16.83;;;2.47;;
179;SDS011;78;48.788;9.010;2023-04-24T00:12:51;14.67;;;2.40;;
179;SDS011;78;48.788;9.010;2023-04-24T00:15:17;16.83;;;2.30;;
179;SDS011;78;48.788;9.010;2023-04-24T00:17:43;14.73;;;2.40;;
179;SDS011;78;48.788;9.010;2023-04-24T00:20:10;14.83;;;2.27;;
179;SDS011;78;48.788;9.010;2023-04-24T00:22:36;16.03;;;2.27;;
179;SDS011;78;48.788;9.010;2023-04-24T00:25:02;15.73;;;2.40;;
179;SDS011;78;48.788;9.010;2023-04-24T00:27:28;15.33;;;2.20;;
179;SDS011;78;48.788;9.010;2023-04-24T00:29:54;14.37;;;2.20;;
179;SDS011;78;48.788;9.010;2023-04-24T00:32:20;14.50;;;2.30;;
179;SDS011;78;48.788;9.010;2023-04-24T00:34:46;15.30;;;2.27;;
179;SDS011;78;48.788;9.010;2023-04-24T00:37:12;19.30;;;2.80;;
179;SDS011;78;48.788;9.010;2023-04-24T00:39:38;14.43;;;2.20;;
179;SDS011;78;48.788;9.010;2023-04-24T00:42:04;15.83;;;2.20;;
179;SDS011;78;48.788;9.010;2023-04-24T00:44:31;16.50;;;2.00;;
179;SDS011;78;48.788;9.010;2023-04-24T00:46:58;15.93;;;2.40;;
179;SDS011;78;48.788;9.010;2023-04-24T00:49:25;14.60;;;2.17;;
179;SDS011;78;48.788;9.010;2023-04-24T00:51:51;15.77;;;2.30;;
179;SDS011;78;48.788;9.010;2023-04-24T00:54:17;15.87;;;2.30;;
179;SDS011;78;48.788;9.010;2023-04-24T00:56:43;17.57;;;2.30;;
179;SDS011;78;48.788;9.010;2023-04-24T00:59:11;14.63;;;2.40;;
179;SDS011;78;48.788;9.010;2023-04-24T01:01:37;15.43;;;2.20;;
179;SDS011;78;48.788;9.010;2023-04-24T01:04:07;14.70;;;2.20;;
179;SDS011;78;48.788;9.010;2023-04-24T01:06:33;16.67;;;2.23;;
179;SDS011;78;48.788;9.010;2023-04-24T01:08:59;15.80;;;2.40;;
179;SDS011;78;48.788;9.010;2023-04-24T01:11:25;15.30;;;2.20;;
179;SDS011;78;48.788;9.010;2023-04-24T01:13:52;17.53;;;2.30;;
179;SDS011;78;48.788;9.010;2023-04-24T01:16:18;15.10;;;2.20;;
179;SDS011;78;48.788;9.010;2023-04-24T01:18:45;14.53;;;2.33;;
179;SDS011;78;48.788;9.010;2023-04-24T01:21:13;14.73;;;2.30;;
179;SDS011;78;48.788;9.010;2023-04-24T01:23:41;14.90;;;2.20;;
179;SDS011;78;48.788;9.010;2023-04-24T01:26:07;16.80;;;2.20;;
179;SDS011;78;48.788;9.010;2023-04-24T01:28:33;13.87;;;2.10;;
179;SDS011;78;48.788;9.010;2023-04-24T01:30:59;15.40;;;2.33;;
179;SDS011;78;48.788;9.010;2023-04-24T01:33:25;14.50;;;2.20;;
179;SDS011;78;48.788;9.010;2023-04-24T01:35:51;14.87;;;2.50;;
179;SDS011;78;48.788;9.010;2023-04-24T01:38:17;15.30;;;2.40;;
179;SDS011;78;48.788;9.010;2023-04-24T01:40:43;16.40;;;2.67;;
179;SDS011;78;48.788;9.010;2023-04-24T01:43:11;16.07;;;2.40;;
179;SDS011;78;48.788;9.010;2023-04-24T01:45:37;16.30;;;2.30;;
179;SDS011;78;48.788;9.010;2023-04-24T01:48:02;14.30;;;2.30;;
179;SDS011;78;48.788;9.010;2023-04-24T01:50:28;15.77;;;2.43;;
179;SDS011;78;48.788;9.010;2023-04-24T01:52:55;17.93;;;2.67;;
179;SDS011;78;48.788;9.010;2023-04-24T01:55:21;14.70;;;2.20;;
179;SDS011;78;48.788;9.010;2023-04-24T01:57:47;16.33;;;2.40;;
179;SDS011;78;48.788;9.010;2023-04-24T02:00:14;14.50;;;2.43;;
179;SDS011;78;48.788;9.010;2023-04-24T02:02:40;16.00;;;2.40;;
179;SDS011;78;48.788;9.010;2023-04-24T02:05:07;17.97;;;2.53;;
179;SDS011;78;48.788;9.010;2023-04-24T02:07:33;16.13;;;2.60;;
179;SDS011;78;48.788;9.010;2023-04-24T02:09:59;15.63;;;2.50;;
179;SDS011;78;48.788;9.010;2023-04-24T02:12:25;15.23;;;2.10;;
179;SDS011;78;48.788;9.010;2023-04-24T02:14:51;17.00;;;2.53;;
179;SDS011;78;48.788;9.010;2023-04-24T02:17:17;17.17;;;2.53;;
179;SDS011;78;48.788;9.010;2023-04-24T02:19:44;16.83;;;2.30;;
179;SDS011;78;48.788;9.010;2023-04-24T02:22:11;17.30;;;2.60;;
179;SDS011;78;48.788;9.010;2023-04-24T02:24:38;14.47;;;2.13;;
179;SDS011;78;48.788;9.010;2023-04-24T02:27:04;15.27;;;2.33;;
179;SDS011;78;48.788;9.010;2023-04-24T02:29:30;16.30;;;2.70;;
179;SDS011;78;48.788;9.010;2023-04-24T02:31:56;15.50;;;2.40;;
179;SDS011;78;48.788;9.010;2023-04-24T02:34:22;18.57;;;2.67;;
179;SDS011;78;48.788;9.010;2023-04-24T02:36:48;17.93;;;2.80;;
179;SDS011;78;48.788;9.010;2023-04-24T02:39:15;14.70;;;2.50;;
179;SDS011;78;48.788;9.010;2023-04-24T02:41:44;15.90;;;2.43;;
179;SDS011;78;48.788;9.010;2023-04-24T02:44:09;17.00;;;2.90;;
179;SDS011;78;48.788;9.010;2023-04-24T02:46:36;16.83;;;2.90;;
179;SDS011;78;48.788;9.010;2023-04-24T02:49:03;16.20;;;2.80;;
179;SDS011;78;48.788;9.010;2023-04-24T02:51:29;16.73;;;2.73;;
179;SDS011;78;48.788;9.010;2023-04-24T02:53:55;17.30;;;2.70;;
179;SDS011;78;48.788;9.010;2023-04-24T02:56:21;15.10;;;2.80;;
179;SDS011;78;48.788;9.010;2023-04-24T02:58:47;17.87;;;2.80;;
179;SDS011;78;48.788;9.010;2023-04-24T03:01:13;16.17;;;2.60;;
179;SDS011;78;48.788;9.010;2023-04-24T03:03:39;18.27;;;2.50;;
179;SDS011;78;48.788;9.010;2023-04-24T03:06:05;16.87;;;2.90;;
179;SDS011;78;48.788;9.010;2023-04-24T03:08:33;15.67;;;2.60;;
179;SDS011;78;48.788;9.010;2023-04-24T03:10:59;16.33;;;2.67;;
179;SDS011;78;48.788;9.010;2023-04-24T03:13:25;15.30;;;2.43;;
179;SDS011;78;48.788;9.010;2023-04-24T03:15:51;17.13;;;2.80;;
179;SDS011;78;48.788;9.010;2023-04-24T03:18:18;17.23;;;2.50;;
179;SDS011;78;48.788;9.010;2023-04-24T03:20:45;15.90;;;2.60;;
179;SDS011;78;48.788;9.010;2023-04-24T03:23:11;17.23;;;2.83;;
179;SDS011;78;48.788;9.010;2023-04-24T03:25:37;16.87;;;2.70;;
179;SDS011;78;48.788;9.010;2023-04-24T03:28:03;14.90;;;2.67;;
179;SDS011;78;48.788;9.010;2023-04-24T03:30:29;14.73;;;2.47;;
179;SDS011;78;48.788;9.010;2023-04-24T03:32:55;14.90;;;2.57;;
179;SDS011;78;48.788;9.010;2023-04-24T03:35:21;14.80;;;2.50;;
179;SDS011;78;48.788;9.010;2023-04-24T03:37:47;16.83;;;2.87;;
179;SDS011;78;48.788;9.010;2023-04-24T03:40:13;15.27;;;2.50;;
179;SDS011;78;48.788;9.010;2023-04-24T03:42:39;15.50;;;2.33;;
179;SDS011;78;48.788;9.010;2023-04-24T03:45:05;17.67;;;2.63;;
179;SDS011;78;48.788;9.010;2023-04-24T03:47:32;14.23;;;2.30;;
179;SDS011;78;48.788;9.010;2023-04-24T03:49:58;16.00;;;2.40;;
179;SDS011;78;48.788;9.010;2023-04-24T03:52:24;15.17;;;2.60;;
179;SDS011;78;48.788;9.010;2023-04-24T03:54:50;17.10;;;2.50;;
179;SDS011;78;48.788;9.010;2023-04-24T03:57:15;16.33;;;2.60;;
179;SDS011;78;48.788;9.010;2023-04-24T03:59:41;16.73;;;2.57;;
179;SDS011;78;48.788;9.010;2023-04-24T04:02:07;15.80;;;2.60;;
179;SDS011;78;48.788;9.010;2023-04-24T04:04:33;16.50;;;2.83;;
179;SDS011;78;48.788;9.010;2023-04-24T04:06:59;14.50;;;2.57;;
179;SDS011;78;48.788;9.010;2023-04-24T04:09:27;16.80;;;2.70;;
179;SDS011;78;48.788;9.010;2023-04-24T04:11:53;15.50;;;2.53;;
179;SDS011;78;48.788;9.010;2023-04-24T04:14:22;16.37;;;3.03;;
179;SDS011;78;48.788;9.010;2023-04-24T04:16:48;18.17;;;3.00;;
179;SDS011;78;48.788;9.010;2023-04-24T04:19:15;16.13;;;2.90;;
179;SDS011;78;48.788;9.010;2023-04-24T04:21:41;17.73;;;2.57;;
179;SDS011;78;48.788;9.010;2023-04-24T04:24:08;20.03;;;2.87;;
179;SDS011;78;48.788;9.010;2023-04-24T04:26:34;15.83;;;3.00;;
179;SDS011;78;48.788;9.010;2023-04-24T04:29:02;20.70;;;2.77;;
179;SDS011;78;48.788;9.010;2023-04-24T04:31:29;15.30;;;2.80;;
179;SDS011;78;48.788;9.010;2023-04-24T04:33:55;16.00;;;3.30;;
179;SDS011;78;48.788;9.010;2023-04-24T04:36:22;15.20;;;2.83;;
179;SDS011;78;48.788;9.010;2023-04-24T04:38:49;17.50;;;3.20;;
179;SDS011;78;48.788;9.010;2023-04-24T04:41:15;17.30;;;3.13;;
179;SDS011;78;48.788;9.010;2023-04-24T04:43:44;16.27;;;3.03;;
179;SDS011;78;48.788;9.010;2023-04-24T04:46:11;15.90;;;3.47;;
179;SDS011;78;48.788;9.010;2023-04-24T04:48:38;24.83;;;3.30;;
179;SDS011;78;48.788;9.010;2023-04-24T04:51:04;15.50;;;3.23;;
179;SDS011;78;48.788;9.010;2023-04-24T04:53:31;15.60;;;3.47;;
179;SDS011;78;48.788;9.010;2023-04-24T04:55:57;15.13;;;3.20;;
179;SDS011;78;48.788;9.010;2023-04-24T04:58:24;15.97;;;3.47;;
179;SDS011;78;48.788;9.010;2023-04-24T05:00:50;16.50;;;3.60;;
179;SDS011;78;48.788;9.010;2023-04-24T05:03:18;17.33;;;3.30;;
179;SDS011;78;48.788;9.010;2023-04-24T05:05:44;16.57;;;3.33;;
179;SDS011;78;48.788;9.010;2023-04-24T05:08:11;15.87;;;3.20;;
179;SDS011;78;48.788;9.010;2023-04-24T05:10:37;15.30;;;3.30;;
179;SDS011;78;48.788;9.010;2023-04-24T05:13:05;17.23;;;3.80;;
179;SDS011;78;48.788;9.010;2023-04-24T05:15:31;17.30;;;3.40;;
179;SDS011;78;48.788;9.010;2023-04-24T05:17:57;17.53;;;3.27;;
179;SDS011;78;48.788;9.010;2023-04-24T05:20:23;16.57;;;3.10;;
179;SDS011;78;48.788;9.010;2023-04-24T05:22:50;16.50;;;3.53;;
179;SDS011;78;48.788;9.010;2023-04-24T05:25:16;16.10;;;4.03;;
179;SDS011;78;48.788;9.010;2023-04-24T05:27:43;17.20;;;3.90;;
179;SDS011;78;48.788;9.010;2023-04-24T05:30:09;15.77;;;3.50;;
179;SDS011;78;48.788;9.010;2023-04-24T05:32:35;16.00;;;3.60;;
179;SDS011;78;48.788;9.010;2023-04-24T05:35:02;18.07;;;4.00;;
179;SDS011;78;48.788;9.010;2023-04-24T05:37:28;17.23;;;3.60;;
179;SDS011;78;48.788;9.010;2023-04-24T05:39:54;16.70;;;3.70;;
179;SDS011;78;48.788;9.010;2023-04-24T05:42:21;15.80;;;3.50;;
179;SDS011;78;48.788;9.010;2023-04-24T05:44:47;15.03;;;3.20;;
179;SDS011;78;48.788;9.010;2023-04-24T05:47:13;16.87;;;3.63;;
179;SDS011;78;48.788;9.010;2023-04-24T05:49:40;17.60;;;3.70;;
179;SDS011;78;48.788;9.010;2023-04-24T05:52:06;17.00;;;4.00;;
179;SDS011;78;48.788;9.010;2023-04-24T05:54:33;16.27;;;3.80;;
179;SDS011;78;48.788;9.010;2023-04-24T05:57:00;16.40;;;4.10;;
179;SDS011;78;48.788;9.010;2023-04-24T05:59:29;17.10;;;4.17;;
179;SDS011;78;48.788;9.010;2023-04-24T06:01:55;16.00;;;3.80;;
179;SDS011;78;48.788;9.010;2023-04-24T06:04:21;16.40;;;3.90;;
179;SDS011;78;48.788;9.010;2023-04-24T06:06:47;17.80;;;4.00;;
179;SDS011;78;48.788;9.010;2023-04-24T06:09:15;15.87;;;3.77;;
179;SDS011;78;48.788;9.010;2023-04-24T06:11:42;16.33;;;4.00;;
179;SDS011;78;48.788;9.010;2023-04-24T06:14:08;17.07;;;4.10;;
179;SDS011;78;48.788;9.010;2023-04-24T06:16:34;17.40;;;4.17;;
179;SDS011;78;48.788;9.010;2023-04-24T06:19:00;17.90;;;3.80;;
179;SDS011;78;48.788;9.010;2023-04-24T06:21:26;16.60;;;3.70;;
179;SDS011;78;48.788;9.010;2023-04-24T06:23:53;19.33;;;3.93;;
179;SDS011;78;48.788;9.010;2023-04-24T06:26:22;16.93;;;3.80;;
179;SDS011;78;48.788;9.010;2023-04-24T06:28:50;19.87;;;4.03;;
179;SDS011;78;48.788;9.010;2023-04-24T06:31:16;19.20;;;4.57;;
179;SDS011;78;48.788;9.010;2023-04-24T06:33:42;15.87;;;3.70;;
179;SDS011;78;48.788;9.010;2023-04-24T06:36:08;15.57;;;3.60;;
179;SDS011;78;48.788;9.010;2023-04-24T06:38:34;16.43;;;3.70;;
179;SDS011;78;48.788;9.010;2023-04-24T06:41:00;16.93;;;4.33;;
179;SDS011;78;48.788;9.010;2023-04-24T06:43:26;16.73;;;3.73;;
179;SDS011;78;48.788;9.010;2023-04-24T06:45:52;15.70;;;3.83;;
179;SDS011;78;48.788;9.010;2023-04-24T06:48:18;16.47;;;3.87;;
179;SDS011;78;48.788;9.010;2023-04-24T06:50:45;17.60;;;4.20;;
179;SDS011;78;48.788;9.010;2023-04-24T06:53:11;17.47;;;3.83;;
179;SDS011;78;48.788;9.010;2023-04-24T06:55:39;18.80;;;4.10;;
179;SDS011;78;48.788;9.010;2023-04-24T06:58:05;18.93;;;3.80;;
179;SDS011;78;48.788;9.010;2023-04-24T07:00:31;16.90;;;4.20;;
179;SDS011;78;48.788;9.010;2023-04-24T07:02:57;19.20;;;4.10;;
179;SDS011;78;48.788;9.010;2023-04-24T07:05:23;23.10;;;4.13;;
179;SDS011;78;48.788;9.010;2023-04-24T07:07:49;16.17;;;3.60;;
179;SDS011;78;48.788;9.010;2023-04-24T07:10:16;18.47;;;4.43;;
179;SDS011;78;48.788;9.010;2023-04-24T07:12:42;16.10;;;3.63;;
179;SDS011;78;48.788;9.010;2023-04-24T07:15:09;17.20;;;3.87;;
179;SDS011;78;48.788;9.010;2023-04-24T07:17:35;15.97;;;3.40;;
179;SDS011;78;48.788;9.010;2023-04-24T07:20:03;16.23;;;3.50;;
179;SDS011;78;48.788;9.010;2023-04-24T07:22:29;17.37;;;3.70;;
179;SDS011;78;48.788;9.010;2023-04-24T07:24:55;16.33;;;3.70;;
179;SDS011;78;48.788;9.010;2023-04-24T07:27:21;16.20;;;3.30;;
179;SDS011;78;48.788;9.010;2023-04-24T07:29:48;16.00;;;3.40;;
179;SDS011;78;48.788;9.010;2023-04-24T07:32:14;16.20;;;3.53;;
179;SDS011;78;48.788;9.010;2023-04-24T07:34:40;17.10;;;3.50;;
179;SDS011;78;48.788;9.010;2023-04-24T07:37:06;17.57;;;3.60;;
179;SDS011;78;48.788;9.010;2023-04-24T07:39:32;18.33;;;3.67;;
179;SDS011;78;48.788;9.010;2023-04-24T07:41:58;16.50;;;3.53;;
179;SDS011;78;48.788;9.010;2023-04-24T07:44:24;16.20;;;3.23;;
179;SDS011;78;48.788;9.010;2023-04-24T07:46:50;18.07;;;3.40;;
179;SDS011;78;48.788;9.010;2023-04-24T07:49:16;17.20;;;3.00;;
179;SDS011;78;48.788;9.010;2023-04-24T07:51:42;19.33;;;3.37;;
179;SDS011;78;48.788;9.010;2023-04-24T07:54:08;15.80;;;3.23;;
179;SDS011;78;48.788;9.010;2023-04-24T07:56:34;16.40;;;3.23;;
179;SDS011;78;48.788;9.010;2023-04-24T07:59:03;18.13;;;3.00;;
179;SDS011;78;48.788;9.010;2023-04-24T08:01:29;15.30;;;3.10;;
179;SDS011;78;48.788;9.010;2023-04-24T08:03:55;16.30;;;3.37;;
179;SDS011;78;48.788;9.010;2023-04-24T08:06:21;15.63;;;3.40;;
179;SDS011;78;48.788;9.010;2023-04-24T08:08:47;18.50;;;3.07;;
179;SDS011;78;48.788;9.010;2023-04-24T08:11:13;16.17;;;3.47;;
179;SDS011;78;48.788;9.010;2023-04-24T08:13:39;16.00;;;3.40;;
179;SDS011;78;48.788;9.010;2023-04-24T08:16:05;17.87;;;3.67;;
179;SDS011;78;48.788;9.010;2023-04-24T08:18:31;16.17;;;3.40;;
179;SDS011;78;48.788;9.010;2023-04-24T08:20:58;19.23;;;3.40;;
179;SDS011;78;48.788;9.010;2023-04-24T08:23:26;15.80;;;3.37;;
179;SDS011;78;48.788;9.010;2023-04-24T08:25:52;17.50;;;3.60;;
179;SDS011;78;48.788;9.010;2023-04-24T08:28:18;16.17;;;3.13;;
179;SDS011;78;48.788;9.010;2023-04-24T08:30:45;17.63;;;3.53;;
179;SDS011;78;48.788;9.010;2023-04-24T08:33:12;17.80;;;3.40;;
179;SDS011;78;48.788;9.010;2023-04-24T08:35:38;16.87;;;3.30;;
179;SDS011;78;48.788;9.010;2023-04-24T08:38:05;21.27;;;3.83;;
179;SDS011;78;48.788;9.010;2023-04-24T08:40:31;16.47;;;3.30;;
179;SDS011;78;48.788;9.010;2023-04-24T08:42:59;15.07;;;3.10;;
179;SDS011;78;48.788;9.010;2023-04-24T08:45:25;16.20;;;3.63;;
179;SDS011;78;48.788;9.010;2023-04-24T08:47:52;16.97;;;3.50;;
179;SDS011;78;48.788;9.010;2023-04-24T08:50:18;15.60;;;3.30;;
179;SDS011;78;48.788;9.010;2023-04-24T08:52:44;16.10;;;3.87;;
179;SDS011;78;48.788;9.010;2023-04-24T08:55:10;17.93;;;3.40;;
179;SDS011;78;48.788;9.010;2023-04-24T08:57:36;19.50;;;3.90;;
179;SDS011;78;48.788;9.010;2023-04-24T09:00:05;17.80;;;4.00;;
179;SDS011;78;48.788;9.010;2023-04-24T09:02:31;19.13;;;3.90;;
179;SDS011;78;48.788;9.010;2023-04-24T09:04:59;16.27;;;3.50;;
179;SDS011;78;48.788;9.010;2023-04-24T09:07:25;15.80;;;3.77;;
179;SDS011;78;48.788;9.010;2023-04-24T09:09:53;17.43;;;3.70;;
179;SDS011;78;48.788;9.010;2023-04-24T09:12:19;16.83;;;3.50;;
179;SDS011;78;48.788;9.010;2023-04-24T09:14:46;17.40;;;3.53;;
179;SDS011;78;48.788;9.010;2023-04-24T09:17:13;28.13;;;4.00;;
179;SDS011;78;48.788;9.010;2023-04-24T09:19:40;17.23;;;3.97;;
179;SDS011;78;48.788;9.010;2023-04-24T09:22:06;16.33;;;3.33;;
179;SDS011;78;48.788;9.010;2023-04-24T09:24:33;18.50;;;3.93;;
179;SDS011;78;48.788;9.010;2023-04-24T09:27:00;18.57;;;3.53;;
179;SDS011;78;48.788;9.010;2023-04-24T09:29:26;16.67;;;3.67;;
179;SDS011;78;48.788;9.010;2023-04-24T09:31:53;17.93;;;3.50;;
179;SDS011;78;48.788;9.010;2023-04-24T09:34:22;19.27;;;3.57;;
179;SDS011;78;48.788;9.010;2023-04-24T09:36:49;15.87;;;3.40;;
179;SDS011;78;48.788;9.010;2023-04-24T09:39:15;16.27;;;3.10;;
179;SDS011;78;48.788;9.010;2023-04-24T09:41:45;17.07;;;3.93;;
179;SDS011;78;48.788;9.010;2023-04-24T09:46:39;17.33;;;3.23;;
179;SDS011;78;48.788;9.010;2023-04-24T09:49:24;17.40;;;3.20;;
179;SDS011;78;48.788;9.010;2023-04-24T09:51:50;15.67;;;3.13;;
179;SDS011;78;48.788;9.010;2023-04-24T09:54:20;19.40;;;3.10;;
179;SDS011;78;48.788;9.010;2023-04-24T09:56:47;16.03;;;2.80;;
179;SDS011;78;48.788;9.010;2023-04-24T09:59:14;19.10;;;3.03;;
179;SDS011;78;48.788;9.010;2023-04-24T10:01:41;17.70;;;3.00;;
179;SDS011;78;48.788;9.010;2023-04-24T10:04:53;15.37;;;2.97;;
179;SDS011;78;48.788;9.010;2023-04-24T10:07:02;16.70;;;3.10;;
179;SDS011;78;48.788;9.010;2023-04-24T10:09:31;15.50;;;2.80;;
179;SDS011;78;48.788;9.010;2023-04-24T10:11:57;16.20;;;2.73;;
179;SDS011;78;48.788;9.010;2023-04-24T10:14:24;16.17;;;3.17;;
179;SDS011;78;48.788;9.010;2023-04-24T10:16:54;15.30;;;2.73;;
179;SDS011;78;48.788;9.010;2023-04-24T10:19:22;17.63;;;2.83;;
179;SDS011;78;48.788;9.010;2023-04-24T10:21:50;16.00;;;3.00;;
179;SDS011;78;48.788;9.010;2023-04-24T10:24:17;15.30;;;3.27;;
179;SDS011;78;48.788;9.010;2023-04-24T10:26:43;16.13;;;3.00;;
179;SDS011;78;48.788;9.010;2023-04-24T10:29:10;15.73;;;3.17;;
179;SDS011;78;48.788;9.010;2023-04-24T10:31:39;16.00;;;3.00;;
179;SDS011;78;48.788;9.010;2023-04-24T10:34:05;14.73;;;2.83;;
179;SDS011;78;48.788;9.010;2023-04-24T10:36:35;17.40;;;3.10;;
179;SDS011;78;48.788;9.010;2023-04-24T10:39:02;15.63;;;3.27;;
179;SDS011;78;48.788;9.010;2023-04-24T10:41:30;16.53;;;3.10;;
179;SDS011;78;48.788;9.010;2023-04-24T10:44:09;16.40;;;3.00;;
179;SDS011;78;48.788;9.010;2023-04-24T10:46:37;16.50;;;3.17;;
179;SDS011;78;48.788;9.010;2023-04-24T10:49:03;19.27;;;3.33;;
179;SDS011;78;48.788;9.010;2023-04-24T10:54:23;17.40;;;3.27;;
179;SDS011;78;48.788;9.010;2023-04-24T10:56:50;17.50;;;3.17;;
179;SDS011;78;48.788;9.010;2023-04-24T10:59:26;15.00;;;3.03;;
179;SDS011;78;48.788;9.010;2023-04-24T11:01:53;15.93;;;2.80;;
179;SDS011;78;48.788;9.010;2023-04-24T11:04:29;15.60;;;2.90;;
179;SDS011;78;48.788;9.010;2023-04-24T11:06:55;15.30;;;2.80;;
179;SDS011;78;48.788;9.010;2023-04-24T11:09:21;17.40;;;3.30;;
179;SDS011;78;48.788;9.010;2023-04-24T11:11:47;15.07;;;3.00;;
179;SDS011;78;48.788;9.010;2023-04-24T11:14:14;17.13;;;3.17;;
179;SDS011;78;48.788;9.010;2023-04-24T11:16:44;19.23;;;3.50;;
179;SDS011;78;48.788;9.010;2023-04-24T11:21:47;15.07;;;3.07;;
179;SDS011;78;48.788;9.010;2023-04-24T11:24:26;15.47;;;3.07;;
179;SDS011;78;48.788;9.010;2023-04-24T11:26:56;15.77;;;3.10;;
179;SDS011;78;48.788;9.010;2023-04-24T11:29:22;14.80;;;2.90;;
179;SDS011;78;48.788;9.010;2023-04-24T11:31:48;14.57;;;2.90;;
179;SDS011;78;48.788;9.010;2023-04-24T11:34:16;16.13;;;2.90;;
179;SDS011;78;48.788;9.010;2023-04-24T11:36:46;16.07;;;2.70;;
179;SDS011;78;48.788;9.010;2023-04-24T11:39:12;15.80;;;3.10;;
179;SDS011;78;48.788;9.010;2023-04-24T11:41:39;16.37;;;3.10;;
179;SDS011;78;48.788;9.010;2023-04-24T11:44:08;15.20;;;3.17;;
179;SDS011;78;48.788;9.010;2023-04-24T11:46:36;17.83;;;3.00;;
179;SDS011;78;48.788;9.010;2023-04-24T11:49:04;16.70;;;2.90;;
179;SDS011;78;48.788;9.010;2023-04-24T11:51:31;16.33;;;2.97;;
179;SDS011;78;48.788;9.010;2023-04-24T11:53:57;15.40;;;3.40;;
179;SDS011;78;48.788;9.010;2023-04-24T11:56:24;17.17;;;3.70;;
179;SDS011;78;48.788;9.010;2023-04-24T11:58:54;16.53;;;3.70;;
179;SDS011;78;48.788;9.010;2023-04-24T12:01:20;17.10;;;3.80;;
179;SDS011;78;48.788;9.010;2023-04-24T12:03:49;17.90;;;3.60;;
179;SDS011;78;48.788;9.010;2023-04-24T12:06:17;19.83;;;3.70;;
179;SDS011;78;48.788;9.010;2023-04-24T12:08:45;15.67;;;3.10;;
179;SDS011;78;48.788;9.010;2023-04-24T12:11:14;18.13;;;3.20;;
179;SDS011;78;48.788;9.010;2023-04-24T12:13:43;15.83;;;3.27;;
179;SDS011;78;48.788;9.010;2023-04-24T12:16:10;17.33;;;3.20;;
179;SDS011;78;48.788;9.010;2023-04-24T12:18:41;15.03;;;2.90;;
179;SDS011;78;48.788;9.010;2023-04-24T12:21:19;15.43;;;3.10;;
179;SDS011;78;48.788;9.010;2023-04-24T12:23:46;15.50;;;3.17;;
179;SDS011;78;48.788;9.010;2023-04-24T12:26:15;16.70;;;3.30;;
179;SDS011;78;48.788;9.010;2023-04-24T12:28:42;15.63;;;3.30;;
179;SDS011;78;48.788;9.010;2023-04-24T12:31:08;18.80;;;3.80;;
179;SDS011;78;48.788;9.010;2023-04-24T12:33:35;16.37;;;3.33;;
179;SDS011;78;48.788;9.010;2023-04-24T12:36:01;16.80;;;3.20;;
179;SDS011;78;48.788;9.010;2023-04-24T12:38:27;14.83;;;3.20;;
179;SDS011;78;48.788;9.010;2023-04-24T12:41:08;16.13;;;3.27;;
179;SDS011;78;48.788;9.010;2023-04-24T12:43:34;15.60;;;3.37;;
179;SDS011;78;48.788;9.010;2023-04-24T12:46:00;20.90;;;6.37;;
179;SDS011;78;48.788;9.010;2023-04-24T12:48:27;20.00;;;4.63;;
179;SDS011;78;48.788;9.010;2023-04-24T12:50:53;28.83;;;10.83;;
179;SDS011;78;48.788;9.010;2023-04-24T12:53:20;18.03;;;4.17;;
179;SDS011;78;48.788;9.010;2023-04-24T12:55:46;17.93;;;4.00;;
179;SDS011;78;48.788;9.010;2023-04-24T12:58:17;20.33;;;4.50;;
179;SDS011;78;48.788;9.010;2023-04-24T13:00:45;16.70;;;3.70;;
179;SDS011;78;48.788;9.010;2023-04-24T13:03:11;16.90;;;3.13;;
179;SDS011;78;48.788;9.010;2023-04-24T13:05:37;17.00;;;3.90;;
179;SDS011;78;48.788;9.010;2023-04-24T13:08:03;17.70;;;3.90;;
179;SDS011;78;48.788;9.010;2023-04-24T13:10:29;18.77;;;5.20;;
179;SDS011;78;48.788;9.010;2023-04-24T13:12:56;16.70;;;4.10;;
179;SDS011;78;48.788;9.010;2023-04-24T13:15:22;16.63;;;3.50;;
179;SDS011;78;48.788;9.010;2023-04-24T13:17:48;16.87;;;3.97;;
179;SDS011;78;48.788;9.010;2023-04-24T13:20:14;16.13;;;3.43;;
179;SDS011;78;48.788;9.010;2023-04-24T13:22:40;16.33;;;3.63;;
179;SDS011;78;48.788;9.010;2023-04-24T13:25:06;17.10;;;4.30;;
179;SDS011;78;48.788;9.010;2023-04-24T13:27:32;16.80;;;4.03;;
179;SDS011;78;48.788;9.010;2023-04-24T13:29:58;17.10;;;3.90;;
179;SDS011;78;48.788;9.010;2023-04-24T13:32:24;18.50;;;4.50;;
179;SDS011;78;48.788;9.010;2023-04-24T13:34:50;19.70;;;4.40;;
179;SDS011;78;48.788;9.010;2023-04-24T13:37:16;16.47;;;4.10;;
179;SDS011;78;48.788;9.010;2023-04-24T13:39:42;17.50;;;3.73;;
179;SDS011;78;48.788;9.010;2023-04-24T13:42:08;18.33;;;3.80;;
179;SDS011;78;48.788;9.010;2023-04-24T13:44:34;16.57;;;3.93;;
179;SDS011;78;48.788;9.010;2023-04-24T13:47:00;16.70;;;3.67;;
179;SDS011;78;48.788;9.010;2023-04-24T13:49:26;16.70;;;3.90;;
179;SDS011;78;48.788;9.010;2023-04-24T13:51:53;16.27;;;3.70;;
179;SDS011;78;48.788;9.010;2023-04-24T13:54:19;16.07;;;3.37;;
179;SDS011;78;48.788;9.010;2023-04-24T13:56:45;16.53;;;3.80;;
179;SDS011;78;48.788;9.010;2023-04-24T13:59:14;15.57;;;3.60;;
179;SDS011;78;48.788;9.010;2023-04-24T14:01:40;16.90;;;4.43;;
179;SDS011;78;48.788;9.010;2023-04-24T14:04:06;16.80;;;3.87;;
179;SDS011;78;48.788;9.010;2023-04-24T14:06:33;17.40;;;3.77;;
179;SDS011;78;48.788;9.010;2023-04-24T14:09:00;17.63;;;3.97;;
179;SDS011;78;48.788;9.010;2023-04-24T14:11:26;16.63;;;3.80;;
179;SDS011;78;48.788;9.010;2023-04-24T14:13:52;18.17;;;3.90;;
179;SDS011;78;48.788;9.010;2023-04-24T14:16:19;15.93;;;3.47;;
179;SDS011;78;48.788;9.010;2023-04-24T14:18:45;18.50;;;3.90;;
179;SDS011;78;48.788;9.010;2023-04-24T14:21:11;18.97;;;4.70;;
179;SDS011;78;48.788;9.010;2023-04-24T14:23:37;18.63;;;3.90;;
179;SDS011;78;48.788;9.010;2023-04-24T14:26:03;17.00;;;3.80;;
179;SDS011;78;48.788;9.010;2023-04-24T14:28:29;17.70;;;3.90;;
179;SDS011;78;48.788;9.010;2023-04-24T14:30:55;21.30;;;3.80;;
179;SDS011;78;48.788;9.010;2023-04-24T14:33:21;17.90;;;3.63;;
179;SDS011;78;48.788;9.010;2023-04-24T14:35:47;16.80;;;3.90;;
179;SDS011;78;48.788;9.010;2023-04-24T14:38:14;15.40;;;3.53;;
179;SDS011;78;48.788;9.010;2023-04-24T14:40:40;15.70;;;3.47;;
179;SDS011;78;48.788;9.010;2023-04-24T14:43:06;19.33;;;3.73;;
179;SDS011;78;48.788;9.010;2023-04-24T14:45:32;15.80;;;3.57;;
179;SDS011;78;48.788;9.010;2023-04-24T14:47:58;18.60;;;3.93;;
179;SDS011;78;48.788;9.010;2023-04-24T14:50:24;16.10;;;3.60;;
179;SDS011;78;48.788;9.010;2023-04-24T14:52:56;17.00;;;3.80;;
179;SDS011;78;48.788;9.010;2023-04-24T14:55:22;15.83;;;3.60;;
179;SDS011;78;48.788;9.010;2023-04-24T14:57:48;19.23;;;4.40;;
179;SDS011;78;48.788;9.010;2023-04-24T15:00:15;17.90;;;4.10;;
179;SDS011;78;48.788;9.010;2023-04-24T15:02:42;17.40;;;3.90;;
179;SDS011;78;48.788;9.010;2023-04-24T15:05:09;18.00;;;4.40;;
179;SDS011;78;48.788;9.010;2023-04-24T15:07:35;15.90;;;3.60;;
179;SDS011;78;48.788;9.010;2023-04-24T15:10:02;17.40;;;3.83;;
179;SDS011;78;48.788;9.010;2023-04-24T15:12:28;18.73;;;4.70;;
179;SDS011;78;48.788;9.010;2023-04-24T15:14:55;19.53;;;4.70;;
179;SDS011;78;48.788;9.010;2023-04-24T15:17:21;18.87;;;4.07;;
179;SDS011;78;48.788;9.010;2023-04-24T15:19:47;18.00;;;4.50;;
179;SDS011;78;48.788;9.010;2023-04-24T15:22:17;23.60;;;5.47;;
179;SDS011;78;48.788;9.010;2023-04-24T15:24:43;20.03;;;5.40;;
179;SDS011;78;48.788;9.010;2023-04-24T15:27:09;20.20;;;4.73;;
179;SDS011;78;48.788;9.010;2023-04-24T15:29:36;18.23;;;4.50;;
179;SDS011;78;48.788;9.010;2023-04-24T15:32:02;18.27;;;4.67;;
179;SDS011;78;48.788;9.010;2023-04-24T15:34:27;19.87;;;4.80;;
179;SDS011;78;48.788;9.010;2023-04-24T15:36:54;18.00;;;4.70;;
179;SDS011;78;48.788;9.010;2023-04-24T15:39:23;18.30;;;4.60;;
179;SDS011;78;48.788;9.010;2023-04-24T15:41:49;18.50;;;5.07;;
179;SDS011;78;48.788;9.010;2023-04-24T15:44:15;22.00;;;5.37;;
179;SDS011;78;48.788;9.010;2023-04-24T15:46:41;18.97;;;4.73;;
179;SDS011;78;48.788;9.010;2023-04-24T15:49:07;19.70;;;4.80;;